Terminal Aerodrome Forecast
Issued by NWS

Home | Current Version | Previous Version | Text Only | Print | Product List | Glossary On
Versions: 1 2 3 4 5 6 7 8 9 10 11 12 13
000
FTUS46 KSEW 030530
TAFCLM
TAF
KCLM 030530Z 0306/0406 26006KT P6SM SCT130
     FM031200 29005KT P6SM SCT130 BKN250
     FM032000 29008KT P6SM SCT130 BKN250
     FM040200 29016G24KT P6SM BKN070 OVC130=

USA.gov is the U.S. government's official web portal to all federal, state and local government web resources and services.